Date,TemperatureHighF,TemperatureAvgF,TemperatureLowF,DewpointHighF,DewpointAvgF,DewpointLowF,HumidityHigh,HumidityAvg,HumidityLow,PressureMaxIn,PressureMinIn,WindSpeedMaxMPH,WindSpeedAvgMPH,GustSpeedMaxMPH,PrecipitationSumIn
2013-1-1,31,26,21,29,22,14,92,85,75,30.10,29.99,13,2,13,0.00
2013-1-2,23,16,6,17,12,3,91,83,69,30.25,30.08,9,1,9,0.00
2013-1-3,29,17,2,23,12,-1,93,82,64,30.24,30.13,16,2,16,0.00
2013-1-4,31,27,24,23,19,17,85,72,58,30.24,30.11,24,5,24,0.00
2013-1-5,36,29,23,26,22,18,84,76,64,30.35,30.11,14,2,17,0.03
2013-1-6,36,34,30,32,29,26,92,82,74,30.23,29.94,16,3,16,0.08
2013-1-7,35,30,28,28,26,23,94,83,67,30.43,30.23,14,2,14,0.04
2013-1-8,43,31,21,28,24,19,94,77,44,30.31,30.22,12,1,12,0.12
2013-1-9,47,38,25,38,30,23,94,77,55,30.46,30.16,19,3,19,0.05
2013-1-10,41,33,22,31,26,20,96,79,62,30.58,30.23,12,2,12,0.00
2013-1-11,56,47,39,52,42,27,97,82,60,30.23,29.82,17,3,17,0.45
2013-1-12,60,53,39,54,50,38,98,92,79,29.99,29.83,16,1,16,0.03
2013-1-13,64,55,37,58,52,36,97,88,73,29.95,29.70,22,3,22,0.24
2013-1-14,37,30,24,36,25,20,94,82,71,30.41,29.95,20,3,21,0.01
2013-1-15,33,28,23,23,21,20,91,76,61,30.41,30.09,8,1,9,0.00
2013-1-16,35,31,28,26,23,21,84,74,60,30.10,29.87,15,2,22,0.00
2013-1-17,35,32,26,29,25,18,83,75,65,30.22,29.98,22,3,22,0.00
2013-1-18,34,26,20,20,15,8,78,63,52,30.48,30.13,22,4,23,0.00
2013-1-19,50,43,34,29,25,20,61,49,39,30.14,29.69,23,6,26,0.00
2013-1-20,46,29,19,33,17,10,84,60,48,30.14,29.65,34,6,34,0.00
2013-1-21,21,17,9,15,9,-1,86,70,62,30.13,29.94,20,4,20,0.00
2013-1-22,11,7,5,3,0,-3,85,73,57,30.31,30.09,20,4,20,0.00
2013-1-23,15,10,4,11,4,-2,88,77,63,30.33,30.11,12,2,12,0.00
2013-1-24,21,14,5,14,7,1,90,75,43,30.58,30.10,17,1,17,0.01
2013-1-25,18,14,8,15,10,4,90,84,72,30.54,30.06,14,1,14,0.00
2013-1-26,25,21,17,21,17,14,92,83,73,30.46,30.10,12,2,12,0.00
2013-1-27,30,22,6,24,15,3,90,77,59,30.54,30.27,12,2,14,0.01
2013-1-28,46,39,28,46,38,23,98,95,83,30.29,29.93,17,3,17,0.09
2013-1-29,61,52,41,55,50,40,99,93,76,30.02,29.61,19,3,19,0.10
2013-1-30,64,56,36,57,51,33,95,83,70,29.62,29.10,34,6,34,0.34
2013-1-31,36,25,17,33,18,8,94,77,64,29.87,29.22,27,7,29,0.02
2013-2-1,17,14,11,12,8,5,89,76,64,30.33,29.86,21,5,21,0.00
2013-2-2,22,17,11,20,13,5,92,85,72,30.32,29.99,13,2,13,0.00
2013-2-3,23,19,17,19,14,11,93,82,67,30.03,29.88,16,3,19,0.00
2013-2-4,25,20,16,22,17,12,92,87,81,30.06,29.88,10,1,11,0.00
2013-2-5,30,25,21,23,21,18,93,84,65,29.95,29.85,10,1,13,0.01
2013-2-6,31,25,16,25,16,11,93,73,45,30.34,29.95,14,1,14,0.01
2013-2-7,44,31,16,29,22,12,86,70,52,30.32,29.89,12,2,13,0.04
2013-2-8,40,31,25,36,28,20,94,87,76,30.23,29.73,29,5,29,0.22
2013-2-9,33,25,18,22,19,16,91,76,53,30.43,30.23,18,2,21,0.00
2013-2-10,47,33,19,33,21,16,91,64,34,30.34,29.82,10,3,18,0.01
2013-2-11,52,42,33,44,34,23,93,74,58,29.90,29.63,37,7,37,0.00
2013-2-12,37,31,23,26,23,20,93,74,62,30.07,29.89,25,3,25,0.00
2013-2-13,34,27,19,26,23,17,95,86,70,29.93,29.74,10,0,10,0.00
2013-2-14,38,32,19,34,28,17,96,89,75,29.90,29.81,19,3,19,0.00
2013-2-15,36,30,23,29,24,20,90,79,68,30.09,29.89,17,2,17,0.00
2013-2-16,28,23,19,22,17,9,92,77,48,30.08,29.96,9,1,9,0.00
2013-2-17,21,17,4,17,11,1,92,79,57,30.27,29.98,15,2,19,0.00
2013-2-18,46,24,0,31,14,-3,93,68,48,30.29,29.78,19,3,19,0.12
2013-2-19,48,31,17,38,26,11,93,81,53,29.95,29.58,32,7,32,0.17
2013-2-20,21,18,15,16,12,10,90,78,64,30.24,29.95,19,4,19,0.00
2013-2-21,22,19,16,17,14,12,92,81,69,30.38,30.22,14,2,14,0.01
2013-2-22,38,29,18,36,25,14,95,86,76,30.33,29.95,17,4,17,0.02
2013-2-23,36,34,29,31,28,24,85,78,67,29.98,29.87,13,2,13,0.00
2013-2-24,31,29,26,25,22,19,83,76,68,30.14,29.87,17,2,17,0.00
2013-2-25,42,31,18,28,23,16,96,73,45,30.23,30.06,9,1,10,0.00
2013-2-26,37,34,27,35,28,22,94,82,65,30.09,29.51,24,6,24,0.71
2013-2-27,41,37,32,38,35,31,97,93,84,29.63,29.49,16,3,17,0.23
2013-2-28,33,32,30,32,30,27,95,91,88,29.86,29.57,16,3,17,0.01
2013-3-1,30,27,25,27,23,21,93,85,78,30.02,29.86,14,3,14,0.00
2013-3-2,27,25,22,23,21,18,89,85,77,30.01,29.97,14,3,14,0.00
2013-3-3,26,23,21,22,19,16,92,86,78,30.04,29.97,15,2,16,0.01
2013-3-4,34,25,18,22,18,15,91,76,55,30.14,30.04,13,2,13,0.01
2013-3-5,42,29,15,25,20,13,95,71,36,30.12,29.68,13,3,13,0.03
2013-3-6,44,37,31,30,28,24,89,70,53,30.15,29.68,18,3,19,0.00
2013-3-7,37,33,28,32,29,24,93,86,77,30.35,30.14,12,2,14,0.00
2013-3-8,36,29,22,30,26,20,93,86,71,30.45,30.34,10,1,10,0.00
2013-3-9,52,37,18,33,26,17,96,70,45,30.45,30.11,12,2,12,0.00
2013-3-10,68,57,46,38,33,28,61,42,28,30.11,29.84,21,3,21,0.00
2013-3-11,60,52,41,48,41,34,95,68,38,29.85,29.53,28,4,28,0.68
2013-3-12,41,36,33,37,30,25,89,79,70,29.96,29.70,19,4,19,0.00
2013-3-13,33,29,26,28,23,15,90,77,57,30.15,29.89,22,4,27,0.01
2013-3-14,37,29,23,21,19,15,86,66,48,30.23,30.11,22,4,22,0.00
2013-3-15,43,34,24,34,28,21,95,79,68,30.11,29.84,17,2,17,0.03
2013-3-16,36,32,28,34,30,25,96,93,87,30.01,29.66,11,2,12,0.19
2013-3-17,34,30,26,26,22,18,90,75,57,30.22,30.01,12,2,13,0.02
2013-3-18,43,33,26,43,30,18,98,87,72,30.17,29.61,19,6,23,0.13
2013-3-19,42,31,26,39,23,17,92,72,58,29.94,29.68,33,6,33,0.01
2013-3-20,30,27,21,22,19,14,91,73,61,29.96,29.88,20,4,20,0.00
2013-3-21,28,22,15,24,17,11,92,81,69,29.92,29.87,16,3,16,0.00
2013-3-22,34,27,23,24,22,20,92,82,63,30.02,29.91,13,3,16,0.01
2013-3-23,40,28,15,28,22,13,95,77,54,30.08,30.00,12,1,14,0.01
2013-3-24,35,29,21,24,22,19,94,76,57,30.03,29.51,16,3,16,0.00
2013-3-25,35,33,31,34,30,24,95,91,67,29.81,29.43,17,3,17,0.21
2013-3-26,39,34,31,33,31,30,95,89,70,30.09,29.81,15,2,15,0.02
2013-3-27,41,36,31,31,29,26,95,77,54,30.15,30.07,22,4,22,0.05
2013-3-28,43,37,33,31,30,27,88,74,61,30.26,30.15,14,2,15,0.00
2013-3-29,49,40,28,31,27,22,88,64,36,30.27,30.21,16,2,18,0.00
2013-3-30,56,40,22,30,24,20,95,59,28,30.27,30.02,16,1,19,0.00
2013-3-31,51,45,36,45,35,24,86,69,47,30.01,29.69,18,2,18,0.01
2013-4-1,46,36,30,40,23,10,87,60,34,30.08,29.67,20,5,22,0.02
2013-4-2,38,31,23,23,16,7,88,56,31,30.23,30.08,19,3,21,0.00
2013-4-3,35,30,21,22,15,10,81,55,37,30.48,30.23,20,3,25,0.00
2013-4-4,55,35,17,20,14,9,89,51,18,30.44,30.01,13,1,13,0.00
2013-4-5,45,36,27,32,24,17,75,61,45,30.26,29.98,21,2,21,0.00
2013-4-6,56,39,20,23,17,14,90,49,19,30.33,29.99,19,2,20,0.00
2013-4-7,69,56,42,45,34,15,78,46,24,30.03,29.82,23,5,25,0.00
2013-4-8,70,55,35,53,44,32,92,67,46,30.06,29.86,24,3,26,0.00
2013-4-9,79,64,45,56,50,42,89,62,44,30.12,29.87,18,3,24,0.00
2013-4-10,74,61,48,64,54,46,98,81,54,29.95,29.78,20,2,25,1.12
2013-4-11,52,47,42,48,45,39,97,93,87,29.92,29.60,14,2,14,0.16
2013-4-12,57,46,39,57,43,34,99,89,77,29.88,29.48,19,3,22,0.29
2013-4-13,42,40,34,38,34,28,92,80,71,30.08,29.88,21,3,22,0.01
2013-4-14,57,43,27,38,32,26,97,70,47,30.21,30.03,11,1,12,0.00
2013-4-15,70,59,46,51,45,36,71,60,46,30.09,30.00,24,4,24,0.00
2013-4-16,68,57,47,61,52,46,96,82,71,30.22,29.99,17,3,17,0.13
2013-4-17,66,55,46,47,42,37,97,66,37,30.32,30.09,13,2,13,0.00
2013-4-18,85,71,55,63,57,45,88,64,37,30.09,29.70,25,5,30,0.00
2013-4-19,72,54,39,60,44,28,94,70,52,29.87,29.39,28,6,28,0.23
2013-4-20,42,37,33,32,28,24,90,70,50,30.48,29.87,19,4,20,0.05
2013-4-21,51,39,26,29,26,22,94,63,34,30.68,30.48,12,2,12,0.00
2013-4-22,65,50,33,39,32,26,77,52,34,30.53,30.24,15,2,17,0.00
2013-4-23,73,59,42,42,36,28,67,44,29,30.25,29.90,21,3,24,0.00
2013-4-24,62,58,54,55,49,41,92,75,47,29.89,29.71,19,3,19,0.23
2013-4-25,53,44,34,42,36,31,94,76,45,30.39,30.22,20,2,22,0.09
2013-4-26,61,45,28,40,30,24,98,63,27,30.52,30.39,12,1,13,0.00
2013-4-27,72,54,34,40,35,31,96,55,23,30.41,30.12,14,2,14,0.00
2013-4-28,56,52,45,55,48,38,96,85,65,30.12,29.90,13,2,13,0.35
2013-4-29,67,59,52,59,55,50,97,87,64,30.00,29.89,11,1,14,0.10
2013-4-30,76,62,46,58,52,45,98,72,45,30.13,30.00,15,2,15,0.00
2013-5-1,79,67,54,58,53,46,87,62,41,30.26,30.13,16,3,16,0.00
2013-5-2,78,67,55,49,42,35,56,41,26,30.32,30.16,14,3,16,0.00
2013-5-3,77,66,55,44,40,33,59,39,24,30.20,30.09,22,4,22,0.00
2013-5-4,73,62,53,44,40,35,65,45,26,30.17,30.06,18,4,18,0.00
2013-5-5,75,62,50,43,37,26,72,43,17,30.11,29.99,22,3,22,0.00
2013-5-6,75,63,50,52,44,28,68,50,31,30.07,29.97,16,3,16,0.00
2013-5-7,74,64,55,60,53,50,86,69,44,30.03,29.95,13,2,13,0.01
2013-5-8,72,63,57,57,54,51,93,74,50,29.99,29.93,13,1,14,0.02
2013-5-9,79,66,54,58,48,31,98,62,18,29.98,29.92,14,1,14,0.01
2013-5-10,75,64,59,63,57,44,96,80,56,29.96,29.75,20,2,20,0.31
2013-5-11,60,49,44,58,46,43,97,91,78,29.88,29.77,18,1,21,0.17
2013-5-12,50,43,34,44,33,28,96,70,45,30.11,29.89,21,3,23,0.02
2013-5-13,50,41,30,33,28,22,95,64,34,30.21,30.09,25,2,25,0.00
2013-5-14,66,50,30,42,36,28,95,61,37,30.20,29.85,21,2,23,0.00
2013-5-15,86,69,54,61,52,41,81,58,31,29.87,29.70,23,2,29,0.00
2013-5-16,82,67,51,53,47,38,93,56,22,29.98,29.76,14,1,14,0.00
2013-5-17,82,64,46,53,46,41,91,56,28,30.13,29.98,12,1,12,0.00
2013-5-18,85,70,54,56,49,42,73,51,28,30.14,30.01,11,1,11,0.00
2013-5-19,85,72,61,65,62,52,92,71,49,30.07,29.92,13,2,14,0.00
2013-5-20,86,75,61,71,66,60,97,75,56,29.98,29.85,16,2,17,0.00
2013-5-21,87,78,69,70,67,63,93,71,48,29.89,29.75,22,2,22,0.00
2013-5-22,86,77,66,66,62,59,91,63,44,29.81,29.68,21,2,21,0.13
2013-5-23,72,61,42,65,57,41,96,88,68,30.02,29.72,20,2,21,0.12
2013-5-24,44,42,32,41,36,30,94,80,67,30.35,30.01,22,3,22,0.00
2013-5-25,59,45,29,41,33,27,98,68,42,30.41,30.31,18,2,18,0.01
2013-5-26,64,49,31,44,34,30,98,64,30,30.35,30.26,16,1,16,0.00
2013-5-27,59,50,35,51,42,34,98,76,45,30.30,30.09,10,1,11,0.06
2013-5-28,82,67,52,72,60,50,98,82,58,30.11,29.91,16,1,16,0.54
2013-5-29,88,78,70,66,62,60,74,60,42,30.03,29.93,17,2,17,0.00
2013-5-30,90,78,63,69,62,56,91,63,34,30.13,30.02,19,2,19,0.00
2013-5-31,88,73,62,71,65,60,97,78,47,30.05,29.92,16,2,17,0.57
2013-6-1,84,75,65,70,67,64,97,78,60,29.96,29.73,21,3,24,0.01
2013-6-2,76,69,62,69,61,56,97,77,56,29.90,29.73,21,2,23,0.57
2013-6-3,63,56,44,56,45,32,91,67,37,30.11,29.89,12,2,14,0.00
2013-6-4,71,55,39,49,43,38,98,69,40,30.20,30.11,13,1,13,0.00
2013-6-5,79,62,45,56,48,44,97,63,35,30.18,29.94,13,1,13,0.00
2013-6-6,65,60,54,64,58,49,98,93,66,29.94,29.79,11,1,12,1.04
2013-6-7,60,56,54,58,55,53,99,95,89,29.90,29.83,10,1,10,0.01
2013-6-8,72,62,56,57,55,51,97,80,57,30.11,29.90,8,1,8,0.00
2013-6-9,80,67,53,62,58,51,97,74,47,30.16,29.97,13,1,14,0.00
2013-6-10,72,68,64,69,65,60,97,92,69,29.98,29.73,10,1,10,0.58
2013-6-11,78,68,63,66,64,62,98,86,60,29.89,29.76,16,1,16,0.28
2013-6-12,80,72,62,71,66,61,98,83,61,29.91,29.66,10,0,11,0.00
2013-6-13,71,65,60,68,61,55,97,86,59,29.85,29.47,22,3,22,0.46
2013-6-14,70,62,51,60,56,49,95,82,62,30.08,29.84,16,2,17,0.00
2013-6-15,81,64,45,62,53,44,99,73,38,30.14,29.98,10,1,11,0.01
2013-6-16,81,70,64,69,64,59,96,82,59,30.00,29.84,14,1,15,0.23
2013-6-17,83,69,61,67,63,60,99,84,48,29.95,29.88,12,0,13,0.43
2013-6-18,76,66,55,64,58,50,95,77,60,30.02,29.86,14,1,16,0.00
2013-6-19,78,62,47,54,50,45,97,68,39,30.18,30.01,9,1,9,0.00
2013-6-20,79,64,47,57,52,46,98,68,38,30.24,30.18,13,1,13,0.00
2013-6-21,87,71,52,64,58,51,98,69,37,30.26,30.13,9,1,11,0.00
2013-6-22,90,76,59,71,65,58,98,71,49,30.15,30.01,14,1,15,0.00
2013-6-23,91,80,66,71,67,64,97,67,44,30.10,29.99,15,1,15,0.00
2013-6-24,90,79,66,68,65,62,89,65,43,30.09,29.95,14,1,16,0.00
2013-6-25,90,76,65,73,68,63,97,80,53,30.00,29.82,30,1,31,0.87
2013-6-26,85,74,66,72,68,65,98,85,58,29.92,29.77,11,1,14,0.47
2013-6-27,80,72,68,71,68,65,97,87,61,29.78,29.62,9,0,10,0.10
2013-6-28,80,69,62,68,64,60,98,86,59,29.62,29.50,15,1,15,0.06
2013-6-29,79,67,61,66,63,60,97,87,59,29.69,29.52,11,1,11,0.32
2013-6-30,76,68,61,67,64,61,98,86,71,29.88,29.68,11,1,12,0.01
2013-7-1,74,68,64,68,64,62,95,90,75,29.99,29.84,10,0,10,0.03
2013-7-2,83,71,62,70,66,61,97,84,60,30.04,29.94,7,0,7,0.00
2013-7-3,86,73,64,71,66,63,99,81,52,30.12,30.03,12,1,13,0.00
2013-7-4,79,73,68,70,68,65,98,85,66,30.16,30.10,14,1,15,0.06
2013-7-5,79,72,68,70,68,67,98,90,72,30.14,30.07,12,1,12,0.33
2013-7-6,85,74,66,73,69,66,100,85,60,30.15,29.99,11,1,20,0.09
2013-7-7,80,72,67,70,67,64,97,82,62,30.07,29.97,11,1,11,0.00
2013-7-8,85,72,64,72,66,61,97,81,57,30.09,30.01,17,1,20,0.40
2013-7-9,88,75,68,76,71,67,98,88,60,30.06,29.90,14,1,17,0.39
2013-7-10,88,72,67,78,70,65,98,93,68,29.95,29.74,17,1,17,1.45
2013-7-11,75,68,62,66,60,54,97,76,48,30.02,29.89,12,1,13,0.00
2013-7-12,78,68,54,66,60,53,100,78,47,30.11,30.02,13,1,13,0.00
2013-7-13,85,72,58,69,64,57,97,76,51,30.21,30.10,10,0,11,0.00
2013-7-14,88,77,64,73,69,63,100,77,53,30.25,30.20,6,1,10,0.00
2013-7-15,92,79,68,76,72,67,98,79,49,30.30,30.22,6,0,8,0.00
2013-7-16,89,78,70,78,74,69,98,86,64,30.29,30.21,15,0,15,0.20
2013-7-17,92,81,70,75,72,69,100,77,51,30.27,30.13,11,1,11,0.00
2013-7-18,93,82,72,77,73,70,98,76,49,30.15,29.97,11,1,11,0.00
2013-7-19,92,82,75,75,73,70,92,75,50,29.99,29.79,16,2,17,0.00
2013-7-20,80,72,68,73,68,66,97,88,75,29.90,29.76,20,1,21,0.65
2013-7-21,82,73,65,72,67,63,100,83,61,29.96,29.89,10,0,10,0.00
2013-7-22,74,66,62,70,64,61,98,92,79,29.95,29.76,8,0,8,0.04
2013-7-23,83,71,61,72,66,60,98,85,64,29.78,29.63,13,1,14,0.12
2013-7-24,69,63,52,62,54,50,94,73,55,30.03,29.78,14,2,14,0.00
2013-7-25,76,61,48,54,51,48,98,71,38,30.11,30.03,12,1,13,0.00
2013-7-26,82,66,49,59,54,48,98,69,35,30.11,29.97,12,1,12,0.00
2013-7-27,68,64,60,65,62,57,95,91,86,29.97,29.80,15,1,17,0.17
2013-7-28,70,63,54,62,54,48,96,74,49,30.02,29.84,14,1,20,0.03
2013-7-29,70,62,52,59,55,50,98,79,49,30.19,30.02,13,1,16,0.00
2013-7-30,78,65,50,61,57,49,100,77,45,30.24,30.15,8,0,8,0.00
2013-7-31,77,67,57,66,61,56,98,81,58,30.16,29.92,13,1,13,0.01
2013-8-1,79,69,58,66,62,56,97,79,49,29.92,29.83,13,1,15,0.10
2013-8-2,73,65,56,64,59,55,98,82,52,29.98,29.88,13,1,13,0.16
2013-8-3,77,69,57,66,60,49,96,74,36,30.00,29.91,13,1,15,0.00
2013-8-4,72,63,56,59,56,53,98,80,55,30.12,29.99,17,1,17,0.41
2013-8-5,73,62,50,60,54,49,98,77,46,30.14,30.01,6,0,7,0.00
2013-8-6,79,67,55,62,58,54,97,75,47,30.03,29.95,10,1,10,0.00
2013-8-7,77,68,59,71,65,58,97,89,73,29.97,29.87,15,1,15,0.45
2013-8-8,84,75,70,74,71,68,97,88,66,29.95,29.88,13,1,13,0.00
2013-8-9,78,69,57,68,61,49,96,77,34,30.01,29.88,12,1,12,0.00
2013-8-10,80,67,57,64,59,54,98,75,49,30.11,30.01,10,0,10,0.00
2013-8-11,82,70,60,63,59,56,93,69,44,30.13,30.02,9,1,11,0.00
2013-8-12,82,70,58,68,63,57,98,79,55,30.06,29.82,11,1,11,0.00
2013-8-13,72,66,50,68,59,47,96,78,57,29.99,29.78,17,2,17,0.00
2013-8-14,67,58,49,56,50,47,94,77,47,30.18,29.99,16,1,16,0.01
2013-8-15,70,53,44,57,48,43,98,85,47,30.21,30.17,9,0,9,0.00
2013-8-18,65,65,64,63,63,62,95,94,93,30.15,30.14,1,0,1,0.00
2013-8-19,81,68,58,66,60,56,98,78,43,30.15,30.06,11,0,11,0.00
2013-8-20,86,69,55,65,59,54,100,73,34,30.17,30.09,9,0,9,0.00
2013-8-21,85,70,57,66,62,56,100,76,42,30.18,30.03,10,0,10,0.00
2013-8-22,84,73,65,72,67,64,95,83,62,30.07,29.96,10,1,11,0.13
2013-8-23,81,71,55,67,60,50,97,70,34,30.18,29.99,15,1,15,0.00
2013-8-24,81,65,50,60,52,46,98,68,28,30.32,30.18,11,0,11,0.00
2013-8-25,86,68,51,62,57,50,100,70,37,30.34,30.20,11,1,12,0.00
2013-8-26,86,75,64,71,63,58,86,66,42,30.22,29.98,12,1,14,0.01
2013-8-27,80,74,70,73,70,68,97,87,75,30.02,29.87,16,1,16,1.70
2013-8-28,77,73,68,73,71,67,98,93,83,29.95,29.80,13,1,13,0.15
2013-8-29,86,75,66,71,68,63,98,81,46,30.05,29.94,7,0,7,0.00
2013-8-30,88,74,61,71,66,60,100,78,48,30.00,29.79,11,1,11,0.00
2013-8-31,87,76,68,73,69,67,96,80,57,29.82,29.72,13,1,13,0.01
2013-9-1,83,74,67,72,69,65,98,86,60,29.81,29.72,11,1,11,0.05
2013-9-2,80,70,62,72,67,60,100,90,68,29.84,29.72,13,1,13,0.03
2013-9-3,66,60,52,62,56,50,96,86,70,30.05,29.84,15,1,17,0.00
2013-9-4,76,60,50,61,55,49,98,85,47,30.12,30.04,10,1,10,0.01
2013-9-5,70,62,48,61,54,45,95,75,37,30.24,30.05,14,2,15,0.00
2013-9-6,74,57,42,53,47,42,98,71,31,30.30,30.13,7,0,8,0.00
2013-9-7,80,64,46,66,56,45,98,76,45,30.13,29.93,10,0,11,0.00
2013-9-8,74,67,52,67,61,50,98,82,59,30.06,29.89,15,1,15,0.00
2013-9-9,81,64,48,72,60,46,98,87,67,30.08,29.98,9,0,9,0.00
2013-9-10,95,82,72,75,72,68,89,71,43,30.06,29.98,9,2,14,0.00
2013-9-11,92,81,74,74,72,69,91,73,47,30.08,29.93,10,1,10,0.00
2013-9-12,76,68,57,70,65,56,97,92,75,29.94,29.80,14,0,15,1.04
2013-9-13,58,56,50,58,52,46,98,88,68,30.08,29.86,15,2,15,0.06
2013-9-14,67,54,44,51,46,42,96,74,44,30.18,30.07,10,1,10,0.00
2013-9-15,67,55,42,57,50,41,98,82,53,30.19,30.07,11,0,11,0.05
2013-9-16,67,57,47,57,53,45,98,87,63,30.34,30.11,14,1,14,0.04
2013-9-17,68,52,38,49,44,37,98,76,36,30.43,30.26,9,1,10,0.00
2013-9-18,73,58,44,60,52,43,98,81,51,30.27,30.09,9,0,9,0.00
2013-9-19,76,67,55,66,63,54,98,86,67,30.12,29.99,10,1,12,0.00
2013-9-20,82,71,63,72,67,61,97,87,68,30.01,29.77,15,2,16,0.13
2013-9-21,68,63,54,66,61,53,98,93,72,29.80,29.64,14,1,14,1.04
2013-9-22,58,54,51,56,48,42,98,77,58,30.06,29.80,14,1,14,0.00
2013-9-23,58,52,41,47,45,40,95,79,59,30.18,30.06,9,0,9,0.00
2013-9-24,67,50,35,52,44,34,98,81,48,30.17,30.01,9,0,10,0.00
2013-9-25,72,55,40,55,48,39,98,79,38,30.02,29.92,10,0,10,0.00
2013-9-26,74,57,43,56,48,41,98,75,28,30.14,29.98,10,1,11,0.00
2013-9-27,71,57,45,55,50,44,98,79,47,30.23,30.13,11,0,11,0.00
2013-9-28,75,59,45,59,52,45,100,79,47,30.25,30.12,11,1,11,0.00
2013-9-29,73,63,52,62,56,50,95,80,60,30.12,29.98,11,1,11,0.00
2013-9-30,65,61,54,60,59,53,96,92,83,30.02,29.96,10,0,10,0.02
2013-10-1,77,63,52,64,58,51,100,85,56,30.08,29.98,11,1,11,0.00
2013-10-2,80,66,56,68,61,54,98,86,63,30.08,30.01,10,0,10,0.00
2013-10-3,78,65,57,70,63,56,98,93,72,30.08,29.99,12,0,12,0.54
2013-10-4,79,68,63,69,66,62,98,92,67,30.06,30.01,9,0,9,0.09
2013-10-5,78,68,62,70,66,62,100,94,72,30.05,29.93,11,0,11,0.11
2013-10-6,80,70,56,68,66,54,98,85,63,29.93,29.68,22,2,22,0.32
2013-10-7,58,52,46,54,47,44,97,83,60,30.14,29.70,18,1,18,0.65
2013-10-8,68,52,39,53,44,39,98,77,36,30.32,30.14,8,0,8,0.00
2013-10-9,69,51,37,50,43,36,98,77,38,30.35,30.25,11,0,11,0.00
2013-10-10,70,50,38,51,43,36,98,81,25,30.26,30.13,6,0,7,0.00
2013-10-11,74,55,40,55,47,39,100,77,34,30.16,30.07,9,0,9,0.00
2013-10-12,75,60,46,64,55,45,98,83,63,30.14,30.07,9,0,9,0.00
2013-10-13,69,62,57,62,59,55,95,89,77,30.29,30.13,11,1,11,0.02
2013-10-14,66,54,43,55,48,41,97,80,51,30.37,30.25,13,1,13,0.00
2013-10-15,63,54,39,60,52,38,98,93,86,30.27,29.96,9,1,9,0.01
2013-10-16,68,60,46,63,58,44,97,93,83,29.97,29.80,19,1,19,0.67
2013-10-17,59,48,40,50,45,39,100,91,63,29.93,29.78,12,1,12,0.20
2013-10-18,62,52,41,48,44,40,96,76,49,30.01,29.89,14,1,16,0.00
2013-10-19,51,45,40,46,42,38,96,89,75,29.94,29.75,13,1,13,0.23
2013-10-20,60,47,36,43,39,35,95,75,45,30.01,29.93,16,1,16,0.00
2013-10-21,64,54,46,49,42,39,95,64,40,30.00,29.85,17,2,18,0.12
2013-10-22,50,42,34,48,34,29,95,73,44,29.98,29.86,14,1,14,0.10
2013-10-23,45,38,31,40,33,29,97,83,60,29.97,29.81,18,1,18,0.11
2013-10-24,43,36,31,34,32,29,95,82,61,30.19,29.95,18,1,18,0.02
2013-10-25,48,38,32,37,32,29,97,79,49,30.37,30.19,16,1,16,0.09
2013-10-26,45,40,35,37,30,27,93,66,51,30.25,29.89,21,3,24,0.01
2013-10-27,50,39,31,38,33,29,97,80,49,30.13,30.01,13,1,13,0.00
2013-10-28,57,40,27,42,35,26,98,82,50,30.38,30.11,10,0,11,0.00
2013-10-29,57,42,29,42,35,28,98,79,45,30.44,30.28,7,0,8,0.01
2013-10-30,66,51,34,52,44,33,98,77,50,30.28,30.06,9,0,9,0.00
2013-10-31,65,60,55,58,57,52,95,89,73,30.06,29.32,22,4,27,0.44
2013-11-1,60,53,49,58,47,42,95,79,65,29.70,29.25,22,3,25,0.28
2013-11-2,49,45,41,44,42,39,95,89,76,30.04,29.68,14,1,14,0.17
2013-11-3,47,38,29,39,32,25,98,80,50,30.51,30.04,12,1,12,0.00
2013-11-4,45,36,29,28,25,23,82,62,40,30.58,30.43,14,2,14,0.00
2013-11-5,61,48,37,43,36,27,78,63,47,30.48,30.30,11,1,12,0.00
2013-11-6,66,55,43,56,46,34,95,71,53,30.30,29.90,28,3,28,0.23
2013-11-7,52,41,39,50,36,27,96,80,58,30.14,29.92,26,2,26,0.20
2013-11-8,40,35,26,33,29,24,93,80,57,30.32,30.11,9,1,17,0.01
2013-11-9,58,44,26,40,33,24,96,64,40,30.30,29.93,26,3,28,0.01
2013-11-10,52,43,32,40,32,28,85,64,55,30.30,29.96,25,4,25,0.00
2013-11-11,46,38,28,38,31,26,95,79,55,30.30,30.06,19,2,19,0.12
2013-11-12,33,30,28,29,26,20,95,84,68,30.54,30.23,15,2,16,0.19
2013-11-13,37,31,25,25,21,18,89,66,45,30.58,30.34,17,2,18,0.05
2013-11-14,49,38,29,25,22,20,73,50,31,30.34,30.14,19,4,21,0.00
2013-11-15,51,45,37,31,25,20,61,43,31,30.17,30.10,16,2,18,0.00
2013-11-16,59,48,31,50,42,29,94,78,61,30.22,29.95,18,2,18,0.00
2013-11-17,61,57,51,57,53,42,95,86,62,29.95,29.43,38,6,41,0.56
2013-11-18,51,43,35,43,34,25,79,69,59,30.13,29.57,21,6,30,0.00
2013-11-19,38,33,22,28,25,20,93,71,56,30.46,30.13,15,2,15,0.00
2013-11-20,46,33,20,26,19,17,96,59,27,30.51,30.36,17,3,18,0.00
2013-11-21,42,39,36,40,31,18,94,74,42,30.42,30.23,12,2,13,0.07
2013-11-22,49,43,35,48,41,29,97,94,78,30.34,30.14,22,2,22,0.12
2013-11-23,35,28,18,29,23,12,94,82,57,30.45,30.24,23,4,23,0.00
2013-11-24,22,20,16,16,11,9,87,68,57,30.59,30.45,22,4,23,0.00
2013-11-25,33,25,16,26,14,11,85,64,41,30.54,30.23,19,2,19,0.01
2013-11-26,34,31,30,30,29,26,97,89,78,30.24,29.87,12,1,13,0.01
2013-11-27,32,27,23,30,22,14,96,84,69,30.18,29.83,19,3,22,0.00
2013-11-28,27,23,17,21,17,12,87,78,65,30.48,30.19,12,1,12,0.00
2013-11-29,34,25,17,24,20,15,95,81,62,30.70,30.47,6,0,7,0.12
2013-11-30,40,29,23,27,22,19,93,77,60,30.66,30.23,18,2,18,0.05
2013-12-1,41,34,23,32,29,21,96,80,69,30.23,30.00,12,1,12,0.04
2013-12-2,38,34,30,35,31,29,97,90,78,30.00,29.90,9,0,9,0.01
2013-12-3,49,38,29,41,35,28,96,88,74,29.95,29.90,10,1,10,0.00
2013-12-4,57,48,36,51,44,35,97,85,76,29.98,29.80,16,2,16,0.00
2013-12-5,61,51,33,57,46,31,95,82,66,30.11,29.77,18,3,18,0.03
2013-12-6,33,30,26,31,28,24,96,91,78,30.38,30.09,15,1,15,0.02
2013-12-7,26,23,18,24,17,14,93,79,66,30.65,30.37,15,2,15,0.00
2013-12-8,29,24,17,26,18,14,91,81,68,30.65,30.09,18,3,18,0.00
2013-12-9,33,30,24,32,26,18,97,86,74,30.19,29.98,22,4,22,0.01
2013-12-10,26,22,20,19,14,8,79,69,48,30.31,30.06,22,4,22,0.00
2013-12-11,24,20,17,20,15,10,93,82,71,30.47,30.30,20,3,20,0.00
2013-12-12,18,14,8,10,6,1,88,71,49,30.52,30.30,18,3,18,0.00
2013-12-13,31,23,17,18,13,4,85,67,56,30.33,30.26,13,2,13,0.00
2013-12-14,33,28,24,32,26,18,98,93,77,30.30,29.70,11,2,11,0.00
2013-12-15,32,22,13,32,20,9,98,90,82,30.10,29.70,18,4,21,0.00
2013-12-16,24,17,10,20,12,7,92,80,62,30.25,30.07,14,1,14,0.00
2013-12-17,26,24,21,26,22,19,96,90,81,30.10,29.98,15,2,15,0.00
2013-12-18,29,25,24,23,21,17,90,83,70,30.21,30.06,18,3,20,0.00
2013-12-19,44,38,29,36,28,19,80,67,58,30.09,29.99,17,2,17,0.37
2013-12-20,54,46,41,53,42,32,97,85,61,29.99,29.83,18,3,18,0.29
2013-12-21,55,49,41,55,48,40,99,97,92,29.83,29.49,20,2,20,1.10
2013-12-22,61,52,39,61,48,37,100,86,59,30.00,29.42,32,5,32,0.43
2013-12-23,39,33,27,38,28,19,96,82,70,30.34,29.99,16,3,17,0.01
2013-12-24,27,19,16,22,14,8,90,80,67,30.59,30.31,19,3,19,0.01
2013-12-25,28,20,13,20,14,10,90,76,61,30.57,30.23,16,2,17,0.00
2013-12-26,31,27,20,27,22,16,92,80,65,30.38,30.15,22,3,22,0.00
2013-12-27,40,34,24,31,26,19,83,75,67,30.39,30.23,13,2,13,0.01
2013-12-28,52,42,36,35,32,29,77,66,50,30.23,30.02,15,2,16,0.00
2013-12-29,43,39,28,39,32,26,96,78,56,30.02,29.72,16,2,16,0.23
2013-12-30,27,20,18,26,18,15,94,90,84,30.28,29.95,12,1,14,0.00
2013-12-31,21,18,16,19,14,10,93,84,70,30.38,30.11,11,2,23,0.00
2014-1-1,25,20,18,21,18,16,93,89,82,30.41,30.18,7,1,8,0.00
2014-1-2,20,17,11,18,14,8,92,89,85,30.18,29.88,19,3,23,0.00